Dorothy Ann — WDE8761 — position and weather

sailwx.info

Track history (hours):
 
Tides and Currents Weather Stations Pressure Air Temp Water Temp Dewpoint Dewpoint Depression Visibility Wind Speed Wind Dir Waves Ship Positions

Dorothy Ann

Owner: THE INTERLAKE STEAMSHIP COMPANY, Middleburg Heights, OH. More information available from US FCC via Universal Licensing System and Coast Guard Vessel Documentation Center.

Last reported at 2015-Jul-07 06:00 UTC. Time now 2015-Jul-07 06:45 UTC.
Position N 43°06' W 082°24'.

Length 215 m; draft 6.2 m.

Type: Cargo ship. MMSI: 367409260.

Wind from 180 at 16 knots

Barometer 1012.3 mb
Air temperature 21.7 ° C
Water temperature 42.6 ° C

Date/timePositionNaut miles runAvg speedWind from/ knotsBaromVisibWave heightAir tempDewpointWater temp
2015-Jul-07 06:00N 43°06' W 082°24'6 6.0 180 / 161012.3 21.7 42.6
2015-Jul-07 05:00N 43°00' W 082°24'1312.8 190 / 141013.0 21.4 42.6
2015-Jul-07 04:00N 42°48' W 082°30'27 6.9 160 / 81013.7 20.5 42.6
2015-Jul-07 00:00N 42°24' W 082°48'1110.7 200 / 121014.5 25.6 42.6
2015-Jul-06 23:00N 42°18' W 083°00'4 2.2 210 / 121014.8 27.3 42.6
2015-Jul-06 21:00N 42°18' W 083°06'0 0.0 170 / 121015.5 27.4 42.6
2015-Jul-06 20:00N 42°18' W 083°06'0 0.0 130 / 71016.2 28.2 42.6
2015-Jul-06 19:00N 42°18' W 083°06'0 0.0 190 / 81016.9 27.6 42.6
2015-Jul-06 18:00N 42°18' W 083°06'0 0.0 190 / 81017.2 26.8 42.6
2015-Jul-06 17:00N 42°18' W 083°06'11 5.4 160 / 71017.2 27.1 42.6
2015-Jul-06 15:00N 42°24' W 082°54'7 7.5 100 / 51018.6 20.8 42.6
2015-Jul-06 14:00N 42°30' W 082°48'18 8.9 160 / 21018.2 19.8 42.6
2015-Jul-06 12:00N 42°42' W 082°30'19 9.3 240 / 11018.8 16.4 42.6
2015-Jul-06 10:00N 43°00' W 082°24'18 9.0 190 / 31018.4 17.2 42.6
2015-Jul-06 08:00N 43°18' W 082°24'1312.8 210 / 91018.4 18.7 42.6
2015-Jul-06 07:00N 43°30' W 082°30'31 7.8 210 / 111018.1 19.2 42.6
2015-Jul-06 03:00N 44°00' W 082°42'7 7.4 170 / 141018.1 19.6 42.6
2015-Jul-06 02:00N 44°06' W 082°48'25 8.3 140 / 151018.1 20.4 42.6
2015-Jul-05 23:00N 44°24' W 083°12'1212.0 150 / 161018.1 18.8 42.6
2015-Jul-05 22:00N 44°36' W 083°12'7 7.4 140 / 131018.4 18.4 42.6
2015-Jul-05 21:00N 44°42' W 083°06'3010.1 160 / 121019.1 17.5 42.6
2015-Jul-05 18:00N 45°12' W 083°12'7 7.3 160 / 131019.4 17.5 42.6
2015-Jul-05 17:00N 45°18' W 083°18'4 4.2 150 / 171019.1 18.0 42.6
2015-Jul-05 16:00N 45°18' W 083°24'0 0.0 140 / 111019.4 20.9 42.6
2015-Jul-05 15:00N 45°18' W 083°24'0 0.0 130 / 71019.8 20.5 42.6
2015-Jul-05 13:00N 45°18' W 083°24'0 0.0 230 / 31019.8 18.4 42.6
2015-Jul-05 12:00N 45°18' W 083°24'0 0.0 240 / 21018.8 16.6 42.6
2015-Jul-05 11:00N 45°18' W 083°24'0 0.0 200 / 21018.4 15.8 42.6
2015-Jul-05 10:00N 45°18' W 083°24'0 0.0 260 / 31018.4 16.2 42.6
2015-Jul-05 09:00N 45°18' W 083°24'0 0.0 240 / 31018.1 16.2 42.6
2015-Jul-05 08:00N 45°18' W 083°24'0 0.0 230 / 51018.1 17.0 42.6
2015-Jul-05 07:00N 45°18' W 083°24'0 0.0 250 / 21018.1 17.2 42.6
2015-Jul-05 06:00N 45°18' W 083°24'0 0.0 260 / 31017.7 17.1 42.6
2015-Jul-05 05:00N 45°18' W 083°24'0 0.0 250 / 61017.4 19.4 42.6
2015-Jul-05 04:00N 45°18' W 083°24'0 0.0 270 / 61016.7 18.6 42.6
2015-Jul-05 03:00N 45°18' W 083°24'0 0.0 250 / 31016.7 19.0 42.6
2015-Jul-05 02:00N 45°18' W 083°24'4 4.2 200 / 31016.4 18.9 42.6
2015-Jul-05 01:00N 45°18' W 083°18'1312.7 200 / 51015.7 18.4 42.6
2015-Jul-05 00:00N 45°06' W 083°12'2010.0 220 / 61015.4 18.2 42.6
2015-Jul-04 22:00N 44°48' W 083°00'7 7.4 030 / 31015.7 18.0 42.6
2015-Jul-04 21:00N 44°42' W 082°54'50 9.9 080 / 51015.4 18.7 42.6
2015-Jul-04 16:00N 43°54' W 082°36'1312.8 130 / 41015.4 19.9 42.6
2015-Jul-04 15:00N 43°42' W 082°30'6 6.0 160 / 21015.0 18.0 42.6
2015-Jul-04 14:00N 43°36' W 082°30'1212.0 230 / 11015.0 16.8 42.6
2015-Jul-04 13:00N 43°24' W 082°30'7 7.4 310 / 21015.0 15.7 42.6
2015-Jul-04 12:00N 43°18' W 082°24'1212.0 330 / 61015.0 15.4 42.6
2015-Jul-04 11:00N 43°06' W 082°24'6 6.0 340 / 31014.3 15.9 42.6
2015-Jul-04 10:00N 43°00' W 082°24'1312.8 210 / 21013.7 13.9 42.6
2015-Jul-04 09:00N 42°48' W 082°30'6 6.0 040 1013.7 13.5 42.6
2015-Jul-04 08:00N 42°42' W 082°30'6 6.0 010 / 21013.7 14.2 42.6
2015-Jul-04 07:00N 42°36' W 082°30'18 8.9 060 / 21013.7 14.9 42.6
2015-Jul-04 05:00N 42°24' W 082°48'1110.7 270 / 21013.8 18.8 42.6
2015-Jul-04 04:00N 42°18' W 083°00'13 6.4 180 / 31013.8 18.8 42.6
2015-Jul-04 02:00N 42°06' W 083°06'6 6.0 040 / 21013.5 18.8 42.6
2015-Jul-04 01:00N 42°00' W 083°06'44 8.8 100 / 81013.4 19.9 42.6
2015-Jul-03 20:00N 41°42' W 082°12'1110.8 020 / 161014.0 18.4 42.6
2015-Jul-03 19:00N 41°36' W 082°00'1110.8 040 / 171014.4 19.1 42.6
2015-Jul-03 18:00N 41°30' W 081°48'4 4.5 040 / 171014.7 20.3 42.6
2015-Jul-03 17:00N 41°30' W 081°42'0 0.0 040 / 141014.7 21.2 42.6
2015-Jul-03 16:00N 41°30' W 081°42'0 0.0 040 / 41015.1 21.4 42.6
2015-Jul-03 15:00N 41°30' W 081°42'0 0.0 110 / 61014.7 21.4 42.6
2015-Jul-03 13:00N 41°30' W 081°42'0 0.0 060 / 21016.1 18.6 42.6
2015-Jul-03 12:00N 41°30' W 081°42'0 0.0 100 / 31016.1 15.9 42.6
2015-Jul-03 11:00N 41°30' W 081°42'0 0.0 200 / 21015.7 14.8 42.6
2015-Jul-03 09:00N 41°30' W 081°42'0 0.0 140 / 21015.4 16.6 42.6
2015-Jul-03 08:00N 41°30' W 081°42'0 0.0 070 / 61015.4 17.4 42.6
2015-Jul-03 06:00N 41°30' W 081°42'0 0.0 060 / 51015.4 18.2 42.6
2015-Jul-03 05:00N 41°30' W 081°42'0 0.0 070 / 41016.1 18.2 42.6
2015-Jul-03 03:00N 41°30' W 081°42'0 0.0 070 / 41015.4 19.0 42.6
2015-Jul-03 01:00N 41°30' W 081°42'0 0.0 050 / 101014.7 19.5 42.6
2015-Jul-03 00:00N 41°30' W 081°42'0 0.0 040 / 141014.7 19.1 42.6
2015-Jul-02 23:00N 41°30' W 081°42'0 0.0 030 / 121014.7 18.9 42.6
2015-Jul-02 22:00N 41°30' W 081°42'0 0.0 1015.1 19.7 42.6
2015-Jul-02 21:00N 41°30' W 081°42'0 0.0 030 / 131015.1 19.9 42.6
2015-Jul-02 20:00N 41°30' W 081°42'0 0.0 350 / 121015.4 19.9 42.6
2015-Jul-02 19:00N 41°30' W 081°42'0 0.0 010 / 91015.4 19.7 42.6
2015-Jul-02 18:00N 41°30' W 081°42'0 0.0 350 / 101015.4 19.2 42.6
2015-Jul-02 17:00N 41°30' W 081°42'0 0.0 350 / 121015.7 19.3 42.6
2015-Jul-02 16:00N 41°30' W 081°42'0 0.0 340 / 131016.1 18.9 42.6
2015-Jul-02 15:00N 41°30' W 081°42'0 0.0 020 / 101015.4 18.6 42.6
2015-Jul-02 14:00N 41°30' W 081°42'0 0.0 030 / 51015.1 19.7 42.6
2015-Jul-02 13:00N 41°30' W 081°42'0 0.0 330 / 21015.1 18.5 42.6
2015-Jul-02 12:00N 41°30' W 081°42'0 0.0 050 / 131014.7 18.1 42.6
2015-Jul-02 11:00N 41°30' W 081°42'0 0.0 020 / 161014.4 18.1 42.6
2015-Jul-02 10:00N 41°30' W 081°42'0 0.0 050 / 51014.4 18.2 42.6
2015-Jul-02 09:00N 41°30' W 081°42'0 0.0 060 / 61014.4 18.1 42.6
2015-Jul-02 08:00N 41°30' W 081°42'0 0.0 060 / 41014.0 18.6 42.6
2015-Jul-02 07:00N 41°30' W 081°42'0 0.0 040 / 121014.0 18.5 42.6
2015-Jul-02 06:00N 41°30' W 081°42'0 0.0 040 / 141014.0 18.8 42.6
2015-Jul-02 05:00N 41°30' W 081°42'0 0.0 080 / 61014.0 20.0 42.6
2015-Jul-02 04:00N 41°30' W 081°42'0 0.0 010 / 61014.0 19.7 42.6
2015-Jul-02 03:00N 41°30' W 081°42'0 0.0 310 / 51014.4 24.2 42.6
2015-Jul-02 01:00N 41°30' W 081°42'0 0.0 360 / 31013.4 21.0 42.6
2015-Jul-02 00:00N 41°30' W 081°42'0 0.0 330 / 41012.7 21.4 42.6
2015-Jul-01 23:00N 41°30' W 081°42'0 0.0 330 / 51012.7 21.8 42.6
2015-Jul-01 22:00N 41°30' W 081°42'0 0.0 1012.7 20.8 42.6
2015-Jul-01 21:00N 41°30' W 081°42'0 0.0 360 / 71012.7 19.8 42.6
2015-Jul-01 20:00N 41°30' W 081°42'0 0.0 320 / 51013.0 19.9 42.6
2015-Jul-01 19:00N 41°30' W 081°42'0 0.0 340 / 81013.4 19.9 42.6
2015-Jul-01 18:00N 41°30' W 081°42'0 0.0 340 / 51013.7 19.3 42.6
2015-Jul-01 17:00N 41°30' W 081°42'0 0.0 360 / 41013.4 19.9 42.6
2015-Jul-01 16:00N 41°30' W 081°42'0 0.0 340 / 31013.4 19.1 42.6
2015-Jul-01 15:00N 41°30' W 081°42'0 0.0 340 / 21012.7 18.4 42.6
2015-Jul-01 14:00N 41°30' W 081°42'0 0.0 360 / 71012.0 18.1 42.6
2015-Jul-01 10:00N 41°30' W 081°42'0 0.0 240 / 101010.0 18.1 42.6
2015-Jul-01 09:00N 41°30' W 081°42'0 0.0 220 / 91009.3 18.2 42.6
2015-Jul-01 08:00N 41°30' W 081°42'0 0.0 240 / 81009.3 18.4 42.6
2015-Jul-01 07:00N 41°30' W 081°42'0 0.0 240 / 61009.0 18.5 42.6
2015-Jul-01 06:00N 41°30' W 081°42'0 0.0 210 / 61009.0 18.8 42.6
2015-Jul-01 05:00N 41°30' W 081°42'0 0.0 250 / 61009.0 19.5 42.6
2015-Jul-01 04:00N 41°30' W 081°42'0 0.0 160 / 91008.6 19.3 42.6
2015-Jul-01 03:00N 41°30' W 081°42'0 0.0 160 / 51009.6 19.7 42.6
2015-Jul-01 00:00N 41°30' W 081°42'0 0.0 220 / 41009.0 21.1 42.6
2015-Jun-30 23:00N 41°30' W 081°42'0 0.0 200 / 51008.3 20.9 42.6
2015-Jun-30 22:00N 41°30' W 081°42'0 0.0 190 / 21008.3 21.2 42.6
2015-Jun-30 21:00N 41°30' W 081°42'0 0.0 150 / 31009.0 19.2 42.6
2015-Jun-30 18:00N 41°30' W 081°42'0 0.0 330 / 81009.3 21.8 42.6
2015-Jun-30 17:00N 41°30' W 081°42'0 0.0 350 / 81010.0 22.5 42.6
2015-Jun-30 15:00N 41°30' W 081°42'0 0.0 240 / 101010.3 21.4 42.6
2015-Jun-30 13:00N 41°30' W 081°42'15 7.4 220 / 61010.7 18.7 42.6
2015-Jun-30 11:00N 41°36' W 082°00'55 9.1 230 / 151009.3 18.2 42.6
2015-Jun-30 05:00N 42°00' W 083°06'6 6.0 140 / 111010.0 18.7 42.6
2015-Jun-30 04:00N 42°06' W 083°06'12 6.0 090 / 71010.4 18.1 42.6
2015-Jun-30 02:00N 42°18' W 083°06'0 0.0 150 / 81011.1 19.3 42.6
2015-Jun-30 01:00N 42°18' W 083°06'1110.7 160 / 81011.1 19.6 42.6
2015-Jun-30 00:00N 42°24' W 082°54'18 8.9 200 / 121011.1 20.3 42.6
2015-Jun-29 22:00N 42°36' W 082°36'7 7.4 220 / 131011.5 20.9 42.6
2015-Jun-29 21:00N 42°42' W 082°30'1212.0 210 / 131012.0 21.1 42.6
2015-Jun-29 20:00N 42°54' W 082°30'7 7.4 210 / 151011.3 22.6 42.6
2015-Jun-29 19:00N 43°00' W 082°24'1212.0 180 / 191011.3 23.1 42.6
2015-Jun-29 18:00N 43°12' W 082°24'1212.0 130 / 91012.0 22.0 42.6
2015-Jun-29 17:00N 43°24' W 082°24'6 6.0 170 / 101012.3 20.6 42.6
2015-Jun-29 16:00N 43°30' W 082°24'1212.0 200 / 91012.3 19.6 42.6
2015-Jun-29 15:00N 43°42' W 082°24'1212.0 200 / 141012.0 16.3 42.6
2015-Jun-29 14:00N 43°54' W 082°24'96 9.6 210 / 111012.0 16.6 42.6
2015-Jun-29 04:00N 45°24' W 083°12'28 9.2 200 / 161010.3 16.7 42.6
2015-Jun-29 01:00N 45°42' W 083°42'2610.5 300 / 131010.3 18.9 42.6
2015-Jun-28 22:33N 45°56' W 084°13'5 9.7
2015-Jun-28 22:00N 46°00' W 084°18'0 0.0 270 / 131009.6 21.2 42.6
2015-Jun-28 21:00N 46°00' W 084°18'0 0.0 260 / 141009.9 21.4 42.6
2015-Jun-28 20:00N 46°00' W 084°18'0 0.0 260 / 111010.6 21.7 42.6
2015-Jun-28 19:00N 46°00' W 084°18'0 0.0 260 / 121010.6 21.8 42.6
2015-Jun-28 18:00N 46°00' W 084°18'2 4.0 240 / 121011.0 21.7 42.6
2015-Jun-28 17:26N 45°59' W 084°16'511.8
2015-Jun-28 17:00N 45°54' W 084°12'1 1.6 250 / 131011.3 18.9 42.6
2015-Jun-28 16:33N 45°54' W 084°13'0 0.2
2015-Jun-28 15:33N 45°54' W 084°13'1 1.3
2015-Jun-28 15:00N 45°54' W 084°12'2 4.0 260 / 91012.3 17.3 42.6
2015-Jun-28 14:33N 45°53' W 084°10'2 3.1
2015-Jun-28 14:00N 45°54' W 084°12'511.8 230 / 41012.7 17.0 42.6
2015-Jun-28 13:33N 45°50' W 084°08'2 3.8
2015-Jun-28 13:00N 45°48' W 084°06'1 3.3 250 / 61012.7 15.6 42.6
2015-Jun-28 12:33N 45°47' W 084°05'5 4.6
2015-Jun-28 11:29N 45°43' W 084°01'1 2.0
2015-Jun-28 11:00N 45°42' W 084°00'8 5.9 340 / 21012.3 15.7 42.6
2015-Jun-28 09:33N 45°35' W 083°54'5 8.6
2015-Jun-28 09:00N 45°30' W 083°54'4 4.2 330 / 51012.0 14.2 42.6
2015-Jun-28 08:00N 45°30' W 083°48'6 6.0 310 / 31012.310.8 0.514.8 42.6
2015-Jun-28 07:00N 45°24' W 083°48'0 0.0 180 / 11013.0 15.5 42.6
2015-Jun-28 06:00N 45°24' W 083°48'0 0.0 160 / 21013.7 15.1 42.6
2015-Jun-28 05:00N 45°24' W 083°48'0 0.0 100 1014.0 15.4 42.6
2015-Jun-28 04:00N 45°24' W 083°48'0 0.0 130 / 11014.7 16.6 42.6
2015-Jun-28 03:00N 45°24' W 083°48'0 0.0 170 / 41014.7 16.8 42.6
2015-Jun-28 02:00N 45°24' W 083°48'0 0.0 120 / 21015.0 17.5 42.6
2015-Jun-28 01:00N 45°24' W 083°48'0 0.0 100 / 31015.0 16.9 42.6
2015-Jun-28 00:00N 45°24' W 083°48'0 0.0 080 / 81015.0 17.1 42.6
2015-Jun-27 23:00N 45°24' W 083°48'0 0.0 110 / 61015.0 19.7 42.6
2015-Jun-27 22:00N 45°24' W 083°48'0 0.0 080 / 91015.4 19.3 42.6
2015-Jun-27 21:00N 45°24' W 083°48'0 0.0 070 / 51016.0 18.6 42.6
2015-Jun-27 20:00N 45°24' W 083°48'0 0.0 050 / 61016.4 17.8 42.6
2015-Jun-27 19:00N 45°24' W 083°48'0 0.0 010 / 31016.7 17.4 42.6
2015-Jun-27 18:00N 45°24' W 083°48'0 0.0 340 / 31017.1 17.6 42.6
2015-Jun-27 17:00N 45°24' W 083°48'0 0.0 340 / 51017.7 15.9 42.6
2015-Jun-27 16:00N 45°24' W 083°48'2610.8 360 / 61018.1 14.1 42.6
2015-Jun-27 13:33N 45°48' W 084°02'2 2.7
2015-Jun-27 13:00N 45°48' W 084°00'512.6 300 / 41018.4 14.2 42.6
2015-Jun-27 12:33N 45°44' W 083°55'5 9.2
2015-Jun-27 12:00N 45°42' W 083°48'612.8 270 / 21018.8 14.4 42.6
2015-Jun-27 11:33N 45°37' W 083°44'2 3.5
2015-Jun-27 11:00N 45°36' W 083°42'1514.7 350 / 11018.4 14.5 42.6
2015-Jun-27 10:00N 45°24' W 083°30'1010.3 180 / 11018.1 14.3 42.6
2015-Jun-27 09:00N 45°18' W 083°18'   330 / 31018.1 12.8 42.6
Track history (hours):
 
Tides and Currents Weather Stations Pressure Air Temp Water Temp Dewpoint Dewpoint Depression Visibility Wind Speed Wind Dir Waves Ship Positions

Dorothy Ann

Owner: THE INTERLAKE STEAMSHIP COMPANY, Middleburg Heights, OH. More information available from US FCC via Universal Licensing System and Coast Guard Vessel Documentation Center.

Last reported at 2015-Jul-07 06:00 UTC. Time now 2015-Jul-07 06:45 UTC.
Position N 43°06' W 082°24'.

Length 215 m; draft 6.2 m.

Type: Cargo ship. MMSI: 367409260.

Wind from 180 at 16 knots

Barometer 1012.3 mb
Air temperature 21.7 ° C
Water temperature 42.6 ° C

Date/timePositionNaut miles runAvg speedWind from/ knotsBaromVisibWave heightAir tempDewpointWater temp
2015-Jul-07 06:00N 43°06' W 082°24'6 6.0 180 / 161012.3 21.7 42.6
2015-Jul-07 05:00N 43°00' W 082°24'1312.8 190 / 141013.0 21.4 42.6
2015-Jul-07 04:00N 42°48' W 082°30'27 6.9 160 / 81013.7 20.5 42.6
2015-Jul-07 00:00N 42°24' W 082°48'1110.7 200 / 121014.5 25.6 42.6
2015-Jul-06 23:00N 42°18' W 083°00'4 2.2 210 / 121014.8 27.3 42.6
2015-Jul-06 21:00N 42°18' W 083°06'0 0.0 170 / 121015.5 27.4 42.6
2015-Jul-06 20:00N 42°18' W 083°06'0 0.0 130 / 71016.2 28.2 42.6
2015-Jul-06 19:00N 42°18' W 083°06'0 0.0 190 / 81016.9 27.6 42.6
2015-Jul-06 18:00N 42°18' W 083°06'0 0.0 190 / 81017.2 26.8 42.6
2015-Jul-06 17:00N 42°18' W 083°06'11 5.4 160 / 71017.2 27.1 42.6
2015-Jul-06 15:00N 42°24' W 082°54'7 7.5 100 / 51018.6 20.8 42.6
2015-Jul-06 14:00N 42°30' W 082°48'18 8.9 160 / 21018.2 19.8 42.6
2015-Jul-06 12:00N 42°42' W 082°30'19 9.3 240 / 11018.8 16.4 42.6
2015-Jul-06 10:00N 43°00' W 082°24'18 9.0 190 / 31018.4 17.2 42.6
2015-Jul-06 08:00N 43°18' W 082°24'1312.8 210 / 91018.4 18.7 42.6
2015-Jul-06 07:00N 43°30' W 082°30'31 7.8 210 / 111018.1 19.2 42.6
2015-Jul-06 03:00N 44°00' W 082°42'7 7.4 170 / 141018.1 19.6 42.6
2015-Jul-06 02:00N 44°06' W 082°48'25 8.3 140 / 151018.1 20.4 42.6
2015-Jul-05 23:00N 44°24' W 083°12'1212.0 150 / 161018.1 18.8 42.6
2015-Jul-05 22:00N 44°36' W 083°12'7 7.4 140 / 131018.4 18.4 42.6
2015-Jul-05 21:00N 44°42' W 083°06'3010.1 160 / 121019.1 17.5 42.6
2015-Jul-05 18:00N 45°12' W 083°12'7 7.3 160 / 131019.4 17.5 42.6
2015-Jul-05 17:00N 45°18' W 083°18'4 4.2 150 / 171019.1 18.0 42.6
2015-Jul-05 16:00N 45°18' W 083°24'0 0.0 140 / 111019.4 20.9 42.6
2015-Jul-05 15:00N 45°18' W 083°24'0 0.0 130 / 71019.8 20.5 42.6
2015-Jul-05 13:00N 45°18' W 083°24'0 0.0 230 / 31019.8 18.4 42.6
2015-Jul-05 12:00N 45°18' W 083°24'0 0.0 240 / 21018.8 16.6 42.6
2015-Jul-05 11:00N 45°18' W 083°24'0 0.0 200 / 21018.4 15.8 42.6
2015-Jul-05 10:00N 45°18' W 083°24'0 0.0 260 / 31018.4 16.2 42.6
2015-Jul-05 09:00N 45°18' W 083°24'0 0.0 240 / 31018.1 16.2 42.6
2015-Jul-05 08:00N 45°18' W 083°24'0 0.0 230 / 51018.1 17.0 42.6
2015-Jul-05 07:00N 45°18' W 083°24'0 0.0 250 / 21018.1 17.2 42.6
2015-Jul-05 06:00N 45°18' W 083°24'0 0.0 260 / 31017.7 17.1 42.6
2015-Jul-05 05:00N 45°18' W 083°24'0 0.0 250 / 61017.4 19.4 42.6
2015-Jul-05 04:00N 45°18' W 083°24'0 0.0 270 / 61016.7 18.6 42.6
2015-Jul-05 03:00N 45°18' W 083°24'0 0.0 250 / 31016.7 19.0 42.6
2015-Jul-05 02:00N 45°18' W 083°24'4 4.2 200 / 31016.4 18.9 42.6
2015-Jul-05 01:00N 45°18' W 083°18'1312.7 200 / 51015.7 18.4 42.6
2015-Jul-05 00:00N 45°06' W 083°12'2010.0 220 / 61015.4 18.2 42.6
2015-Jul-04 22:00N 44°48' W 083°00'7 7.4 030 / 31015.7 18.0 42.6
2015-Jul-04 21:00N 44°42' W 082°54'50 9.9 080 / 51015.4 18.7 42.6
2015-Jul-04 16:00N 43°54' W 082°36'1312.8 130 / 41015.4 19.9 42.6
2015-Jul-04 15:00N 43°42' W 082°30'6 6.0 160 / 21015.0 18.0 42.6
2015-Jul-04 14:00N 43°36' W 082°30'1212.0 230 / 11015.0 16.8 42.6
2015-Jul-04 13:00N 43°24' W 082°30'7 7.4 310 / 21015.0 15.7 42.6
2015-Jul-04 12:00N 43°18' W 082°24'1212.0 330 / 61015.0 15.4 42.6
2015-Jul-04 11:00N 43°06' W 082°24'6 6.0 340 / 31014.3 15.9 42.6
2015-Jul-04 10:00N 43°00' W 082°24'1312.8 210 / 21013.7 13.9 42.6
2015-Jul-04 09:00N 42°48' W 082°30'6 6.0 040 1013.7 13.5 42.6
2015-Jul-04 08:00N 42°42' W 082°30'6 6.0 010 / 21013.7 14.2 42.6
2015-Jul-04 07:00N 42°36' W 082°30'18 8.9 060 / 21013.7 14.9 42.6
2015-Jul-04 05:00N 42°24' W 082°48'1110.7 270 / 21013.8 18.8 42.6
2015-Jul-04 04:00N 42°18' W 083°00'13 6.4 180 / 31013.8 18.8 42.6
2015-Jul-04 02:00N 42°06' W 083°06'6 6.0 040 / 21013.5 18.8 42.6
2015-Jul-04 01:00N 42°00' W 083°06'44 8.8 100 / 81013.4 19.9 42.6
2015-Jul-03 20:00N 41°42' W 082°12'1110.8 020 / 161014.0 18.4 42.6
2015-Jul-03 19:00N 41°36' W 082°00'1110.8 040 / 171014.4 19.1 42.6
2015-Jul-03 18:00N 41°30' W 081°48'4 4.5 040 / 171014.7 20.3 42.6
2015-Jul-03 17:00N 41°30' W 081°42'0 0.0 040 / 141014.7 21.2 42.6
2015-Jul-03 16:00N 41°30' W 081°42'0 0.0 040 / 41015.1 21.4 42.6
2015-Jul-03 15:00N 41°30' W 081°42'0 0.0 110 / 61014.7 21.4 42.6
2015-Jul-03 13:00N 41°30' W 081°42'0 0.0 060 / 21016.1 18.6 42.6
2015-Jul-03 12:00N 41°30' W 081°42'0 0.0 100 / 31016.1 15.9 42.6
2015-Jul-03 11:00N 41°30' W 081°42'0 0.0 200 / 21015.7 14.8 42.6
2015-Jul-03 09:00N 41°30' W 081°42'0 0.0 140 / 21015.4 16.6 42.6
2015-Jul-03 08:00N 41°30' W 081°42'0 0.0 070 / 61015.4 17.4 42.6
2015-Jul-03 06:00N 41°30' W 081°42'0 0.0 060 / 51015.4 18.2 42.6
2015-Jul-03 05:00N 41°30' W 081°42'0 0.0 070 / 41016.1 18.2 42.6
2015-Jul-03 03:00N 41°30' W 081°42'0 0.0 070 / 41015.4 19.0 42.6
2015-Jul-03 01:00N 41°30' W 081°42'0 0.0 050 / 101014.7 19.5 42.6
2015-Jul-03 00:00N 41°30' W 081°42'0 0.0 040 / 141014.7 19.1 42.6
2015-Jul-02 23:00N 41°30' W 081°42'0 0.0 030 / 121014.7 18.9 42.6
2015-Jul-02 22:00N 41°30' W 081°42'0 0.0 1015.1 19.7 42.6
2015-Jul-02 21:00N 41°30' W 081°42'0 0.0 030 / 131015.1 19.9 42.6
2015-Jul-02 20:00N 41°30' W 081°42'0 0.0 350 / 121015.4 19.9 42.6
2015-Jul-02 19:00N 41°30' W 081°42'0 0.0 010 / 91015.4 19.7 42.6
2015-Jul-02 18:00N 41°30' W 081°42'0 0.0 350 / 101015.4 19.2 42.6
2015-Jul-02 17:00N 41°30' W 081°42'0 0.0 350 / 121015.7 19.3 42.6
2015-Jul-02 16:00N 41°30' W 081°42'0 0.0 340 / 131016.1 18.9 42.6
2015-Jul-02 15:00N 41°30' W 081°42'0 0.0 020 / 101015.4 18.6 42.6
2015-Jul-02 14:00N 41°30' W 081°42'0 0.0 030 / 51015.1 19.7 42.6
2015-Jul-02 13:00N 41°30' W 081°42'0 0.0 330 / 21015.1 18.5 42.6
2015-Jul-02 12:00N 41°30' W 081°42'0 0.0 050 / 131014.7 18.1 42.6
2015-Jul-02 11:00N 41°30' W 081°42'0 0.0 020 / 161014.4 18.1 42.6
2015-Jul-02 10:00N 41°30' W 081°42'0 0.0 050 / 51014.4 18.2 42.6
2015-Jul-02 09:00N 41°30' W 081°42'0 0.0 060 / 61014.4 18.1 42.6
2015-Jul-02 08:00N 41°30' W 081°42'0 0.0 060 / 41014.0 18.6 42.6
2015-Jul-02 07:00N 41°30' W 081°42'0 0.0 040 / 121014.0 18.5 42.6
2015-Jul-02 06:00N 41°30' W 081°42'0 0.0 040 / 141014.0 18.8 42.6
2015-Jul-02 05:00N 41°30' W 081°42'0 0.0 080 / 61014.0 20.0 42.6
2015-Jul-02 04:00N 41°30' W 081°42'0 0.0 010 / 61014.0 19.7 42.6
2015-Jul-02 03:00N 41°30' W 081°42'0 0.0 310 / 51014.4 24.2 42.6
2015-Jul-02 01:00N 41°30' W 081°42'0 0.0 360 / 31013.4 21.0 42.6
2015-Jul-02 00:00N 41°30' W 081°42'0 0.0 330 / 41012.7 21.4 42.6
2015-Jul-01 23:00N 41°30' W 081°42'0 0.0 330 / 51012.7 21.8 42.6
2015-Jul-01 22:00N 41°30' W 081°42'0 0.0 1012.7 20.8 42.6
2015-Jul-01 21:00N 41°30' W 081°42'0 0.0 360 / 71012.7 19.8 42.6
2015-Jul-01 20:00N 41°30' W 081°42'0 0.0 320 / 51013.0 19.9 42.6
2015-Jul-01 19:00N 41°30' W 081°42'0 0.0 340 / 81013.4 19.9 42.6
2015-Jul-01 18:00N 41°30' W 081°42'0 0.0 340 / 51013.7 19.3 42.6
2015-Jul-01 17:00N 41°30' W 081°42'0 0.0 360 / 41013.4 19.9 42.6
2015-Jul-01 16:00N 41°30' W 081°42'0 0.0 340 / 31013.4 19.1 42.6
2015-Jul-01 15:00N 41°30' W 081°42'0 0.0 340 / 21012.7 18.4 42.6
2015-Jul-01 14:00N 41°30' W 081°42'0 0.0 360 / 71012.0 18.1 42.6
2015-Jul-01 10:00N 41°30' W 081°42'0 0.0 240 / 101010.0 18.1 42.6
2015-Jul-01 09:00N 41°30' W 081°42'0 0.0 220 / 91009.3 18.2 42.6
2015-Jul-01 08:00N 41°30' W 081°42'0 0.0 240 / 81009.3 18.4 42.6
2015-Jul-01 07:00N 41°30' W 081°42'0 0.0 240 / 61009.0 18.5 42.6
2015-Jul-01 06:00N 41°30' W 081°42'0 0.0 210 / 61009.0 18.8 42.6
2015-Jul-01 05:00N 41°30' W 081°42'0 0.0 250 / 61009.0 19.5 42.6
2015-Jul-01 04:00N 41°30' W 081°42'0 0.0 160 / 91008.6 19.3 42.6
2015-Jul-01 03:00N 41°30' W 081°42'0 0.0 160 / 51009.6 19.7 42.6
2015-Jul-01 00:00N 41°30' W 081°42'0 0.0 220 / 41009.0 21.1 42.6
2015-Jun-30 23:00N 41°30' W 081°42'0 0.0 200 / 51008.3 20.9 42.6
2015-Jun-30 22:00N 41°30' W 081°42'0 0.0 190 / 21008.3 21.2 42.6
2015-Jun-30 21:00N 41°30' W 081°42'0 0.0 150 / 31009.0 19.2 42.6
2015-Jun-30 18:00N 41°30' W 081°42'0 0.0 330 / 81009.3 21.8 42.6
2015-Jun-30 17:00N 41°30' W 081°42'0 0.0 350 / 81010.0 22.5 42.6
2015-Jun-30 15:00N 41°30' W 081°42'0 0.0 240 / 101010.3 21.4 42.6
2015-Jun-30 13:00N 41°30' W 081°42'15 7.4 220 / 61010.7 18.7 42.6
2015-Jun-30 11:00N 41°36' W 082°00'55 9.1 230 / 151009.3 18.2 42.6
2015-Jun-30 05:00N 42°00' W 083°06'6 6.0 140 / 111010.0 18.7 42.6
2015-Jun-30 04:00N 42°06' W 083°06'12 6.0 090 / 71010.4 18.1 42.6
2015-Jun-30 02:00N 42°18' W 083°06'0 0.0 150 / 81011.1 19.3 42.6
2015-Jun-30 01:00N 42°18' W 083°06'1110.7 160 / 81011.1 19.6 42.6
2015-Jun-30 00:00N 42°24' W 082°54'18 8.9 200 / 121011.1 20.3 42.6
2015-Jun-29 22:00N 42°36' W 082°36'7 7.4 220 / 131011.5 20.9 42.6
2015-Jun-29 21:00N 42°42' W 082°30'1212.0 210 / 131012.0 21.1 42.6
2015-Jun-29 20:00N 42°54' W 082°30'7 7.4 210 / 151011.3 22.6 42.6
2015-Jun-29 19:00N 43°00' W 082°24'1212.0 180 / 191011.3 23.1 42.6
2015-Jun-29 18:00N 43°12' W 082°24'1212.0 130 / 91012.0 22.0 42.6
2015-Jun-29 17:00N 43°24' W 082°24'6 6.0 170 / 101012.3 20.6 42.6
2015-Jun-29 16:00N 43°30' W 082°24'1212.0 200 / 91012.3 19.6 42.6
2015-Jun-29 15:00N 43°42' W 082°24'1212.0 200 / 141012.0 16.3 42.6
2015-Jun-29 14:00N 43°54' W 082°24'96 9.6 210 / 111012.0 16.6 42.6
2015-Jun-29 04:00N 45°24' W 083°12'28 9.2 200 / 161010.3 16.7 42.6
2015-Jun-29 01:00N 45°42' W 083°42'2610.5 300 / 131010.3 18.9 42.6
2015-Jun-28 22:33N 45°56' W 084°13'5 9.7
2015-Jun-28 22:00N 46°00' W 084°18'0 0.0 270 / 131009.6 21.2 42.6
2015-Jun-28 21:00N 46°00' W 084°18'0 0.0 260 / 141009.9 21.4 42.6
2015-Jun-28 20:00N 46°00' W 084°18'0 0.0 260 / 111010.6 21.7 42.6
2015-Jun-28 19:00N 46°00' W 084°18'0 0.0 260 / 121010.6 21.8 42.6
2015-Jun-28 18:00N 46°00' W 084°18'2 4.0 240 / 121011.0 21.7 42.6
2015-Jun-28 17:26N 45°59' W 084°16'511.8
2015-Jun-28 17:00N 45°54' W 084°12'1 1.6 250 / 131011.3 18.9 42.6
2015-Jun-28 16:33N 45°54' W 084°13'0 0.2
2015-Jun-28 15:33N 45°54' W 084°13'1 1.3
2015-Jun-28 15:00N 45°54' W 084°12'2 4.0 260 / 91012.3 17.3 42.6
2015-Jun-28 14:33N 45°53' W 084°10'2 3.1
2015-Jun-28 14:00N 45°54' W 084°12'511.8 230 / 41012.7 17.0 42.6
2015-Jun-28 13:33N 45°50' W 084°08'2 3.8
2015-Jun-28 13:00N 45°48' W 084°06'1 3.3 250 / 61012.7 15.6 42.6
2015-Jun-28 12:33N 45°47' W 084°05'5 4.6
2015-Jun-28 11:29N 45°43' W 084°01'1 2.0
2015-Jun-28 11:00N 45°42' W 084°00'8 5.9 340 / 21012.3 15.7 42.6
2015-Jun-28 09:33N 45°35' W 083°54'5 8.6
2015-Jun-28 09:00N 45°30' W 083°54'4 4.2 330 / 51012.0 14.2 42.6
2015-Jun-28 08:00N 45°30' W 083°48'6 6.0 310 / 31012.310.8 0.514.8 42.6
2015-Jun-28 07:00N 45°24' W 083°48'0 0.0 180 / 11013.0 15.5 42.6
2015-Jun-28 06:00N 45°24' W 083°48'0 0.0 160 / 21013.7 15.1 42.6
2015-Jun-28 05:00N 45°24' W 083°48'0 0.0 100 1014.0 15.4 42.6
2015-Jun-28 04:00N 45°24' W 083°48'0 0.0 130 / 11014.7 16.6 42.6
2015-Jun-28 03:00N 45°24' W 083°48'0 0.0 170 / 41014.7 16.8 42.6
2015-Jun-28 02:00N 45°24' W 083°48'0 0.0 120 / 21015.0 17.5 42.6
2015-Jun-28 01:00N 45°24' W 083°48'0 0.0 100 / 31015.0 16.9 42.6
2015-Jun-28 00:00N 45°24' W 083°48'0 0.0 080 / 81015.0 17.1 42.6
2015-Jun-27 23:00N 45°24' W 083°48'0 0.0 110 / 61015.0 19.7 42.6
2015-Jun-27 22:00N 45°24' W 083°48'0 0.0 080 / 91015.4 19.3 42.6
2015-Jun-27 21:00N 45°24' W 083°48'0 0.0 070 / 51016.0 18.6 42.6
2015-Jun-27 20:00N 45°24' W 083°48'0 0.0 050 / 61016.4 17.8 42.6
2015-Jun-27 19:00N 45°24' W 083°48'0 0.0 010 / 31016.7 17.4 42.6
2015-Jun-27 18:00N 45°24' W 083°48'0 0.0 340 / 31017.1 17.6 42.6
2015-Jun-27 17:00N 45°24' W 083°48'0 0.0 340 / 51017.7 15.9 42.6
2015-Jun-27 16:00N 45°24' W 083°48'2610.8 360 / 61018.1 14.1 42.6
2015-Jun-27 13:33N 45°48' W 084°02'2 2.7
2015-Jun-27 13:00N 45°48' W 084°00'512.6 300 / 41018.4 14.2 42.6
2015-Jun-27 12:33N 45°44' W 083°55'5 9.2
2015-Jun-27 12:00N 45°42' W 083°48'612.8 270 / 21018.8 14.4 42.6
2015-Jun-27 11:33N 45°37' W 083°44'2 3.5
2015-Jun-27 11:00N 45°36' W 083°42'1514.7 350 / 11018.4 14.5 42.6
2015-Jun-27 10:00N 45°24' W 083°30'1010.3 180 / 11018.1 14.3 42.6
2015-Jun-27 09:00N 45°18' W 083°18'   330 / 31018.1 12.8 42.6

Dump ship's entire track history